Pagrindinis puslapis
METAR-TAF:

METAR-TAF

Oro uostai :

Malė, Maldyvai

platuma: 04-12N, ilguma: 073-32E, Aukštis: 2 m

Dabartinis oras

Ataskaita buvo paskelbta 1 valandą ir 12 minutes, ne 13:00 UTC
Vėjas 4 kt iš Pietryčių
Temperatūra 30°C
Drėgmė 75%
Slėgis 1009 hPa
Matomumas 10 km arba daugiau
Išsisklaidę debesys ne aukštis 1800 ft
Mažai debesys ne aukštis 1900 ft, Liūtiniai kamuoliniai debesys.
Apsiniaukę ne aukštis 26000 ft

METAR: VRMM 201300Z 13004KT 9999 SCT018 FEW019CB OVC260 30/25 Q1009 CB N,E,ESE TEMPO 4000 -TSRA

Laikas: 19:12 (14:12 UTC)

Prognozė

Ataskaita buvo paskelbta 3 valandos ir 12 minutes, ne 11:00 UTC
Prognozė galioja nuo 20 metu 12 UTC su 21 metu 18 UTC
Vėjas 9 kt iš Rytų/Šiaurės Rytų
Matomumas 10 km arba daugiau
Mažai debesys ne aukštis 1800 ft
Laikinai
nuo 20 metu 13 UTC su 20 metu 19 UTC
Matomumas: 4000 m
Mažai debesys ne aukštis 1700 ft, Liūtiniai kamuoliniai debesys.
perkūnija, lietus

TAF: VRMM 201100Z 2012/2118 07009KT 9999 FEW018 TEMPO 2013/2019 4000 TSRA FEW017CB

Orai ataskaitas ir orų prognozės (METAR, TAF).

turimą stotys yra geltonos ir raudonos taškus žemėlapyje.

Perkelti pele per norėdami pamatyti stoties vardą.

Tada spustelėkite, norėdami matyti oro stebėjimo ir prognozės.

Norėdami pakeisti žemėlapį: spustelėkite ant žalios mygtukų su juodo kryžiaus žemyn,; žalią mygtuką su brūkšneliu, jei norite nutolinti; arba žalių rodyklių gretimoms žemėlapius.


METAR-TAF: